Time;durP1;ratioP1;P1;durP2;ratioP2;P2;SDS_P1;SDS_P2;PMS_P1;PMS_P2;Temp;Humidity;BMP_temperature;BMP_pressure;BME280_temperature;BME280_humidity;BME280_pressure;Samples;Min_cycle;Max_cycle;Signal;HPM_P1;HPM_P2
2022/12/28 00:00:08;;;;;;;4.50;2.40;;;;;;;2.20;79.45;99322.02;101458;1311;74192;-24
2022/12/28 00:02:38;;;;;;;4.00;2.30;;;;;;;2.19;79.14;99317.81;101335;1311;62709;-24
2022/12/28 00:05:05;;;;;;;6.70;3.00;;;;;;;2.07;79.48;99321.37;101448;1309;61161;-24
2022/12/28 00:07:32;;;;;;;5.10;2.70;;;;;;;1.76;80.61;99330.54;101400;1311;73334;-24
2022/12/28 00:10:00;;;;;;;6.80;3.70;;;;;;;1.64;81.36;99321.94;101336;1311;76712;-24
2022/12/28 00:12:28;;;;;;;7.30;2.70;;;;;;;1.81;81.11;99322.64;101386;1304;73971;-24
2022/12/28 00:14:55;;;;;;;7.30;3.10;;;;;;;2.06;80.28;99325.56;101390;1304;61606;-24
2022/12/28 00:17:22;;;;;;;7.50;3.30;;;;;;;2.06;80.12;99333.41;101364;1308;61820;-24
2022/12/28 00:19:49;;;;;;;3.90;2.60;;;;;;;1.92;80.50;99337.74;101232;1311;74535;-23
2022/12/28 00:22:16;;;;;;;7.80;3.20;;;;;;;1.76;81.20;99334.98;101364;1312;76678;-25
2022/12/28 00:24:43;;;;;;;4.70;2.40;;;;;;;1.64;81.85;99332.36;101384;1311;74981;-26
2022/12/28 00:27:10;;;;;;;6.80;2.70;;;;;;;2.03;80.80;99339.89;101430;1312;61984;-26
2022/12/28 00:29:37;;;;;;;6.50;3.00;;;;;;;2.25;79.52;99341.52;101363;1303;62967;-26
2022/12/28 00:32:04;;;;;;;9.20;3.50;;;;;;;2.18;79.66;99346.27;101298;1306;75258;-26
2022/12/28 00:34:31;;;;;;;6.00;2.60;;;;;;;2.02;80.15;99346.94;101383;1304;75894;-26
2022/12/28 00:36:58;;;;;;;6.10;2.20;;;;;;;1.85;81.09;99349.87;101340;1306;73908;-26
2022/12/28 00:39:39;;;;;;;6.00;3.10;;;;;;;1.75;82.18;99348.35;101222;1311;62983;-23
2022/12/28 00:42:06;;;;;;;4.50;2.80;;;;;;;1.88;81.96;99343.73;101304;1310;62732;-25
2022/12/28 00:44:33;;;;;;;6.00;2.30;;;;;;;2.09;81.29;99349.05;101335;1312;75598;-23
2022/12/28 00:47:00;;;;;;;8.80;3.40;;;;;;;1.97;81.55;99347.50;101217;1302;75704;-24
2022/12/28 00:49:27;;;;;;;5.30;2.40;;;;;;;1.77;82.20;99351.70;101313;1311;75260;-23
2022/12/28 00:51:54;;;;;;;11.70;4.20;;;;;;;1.61;83.10;99348.91;101303;1311;61862;-23
2022/12/28 00:54:21;;;;;;;6.80;2.50;;;;;;;1.70;82.98;99342.92;101364;1314;62842;-24
2022/12/28 00:56:48;;;;;;;7.80;3.10;;;;;;;1.93;82.09;99338.08;101295;1312;74514;-24
2022/12/28 00:59:16;;;;;;;4.40;2.70;;;;;;;1.80;81.94;99329.85;101218;1304;76747;-23
2022/12/28 01:01:43;;;;;;;7.40;3.30;;;;;;;1.78;82.08;99344.29;101286;1310;74159;-24
2022/12/28 01:04:10;;;;;;;3.70;2.30;;;;;;;1.63;82.61;99345.26;101173;1310;61244;-23
2022/12/28 01:06:38;;;;;;;5.30;3.10;;;;;;;1.64;83.01;99354.45;101293;1311;62677;-24
2022/12/28 01:09:05;;;;;;;8.60;2.60;;;;;;;2.00;82.01;99346.18;101389;1310;73858;-23
2022/12/28 01:11:32;;;;;;;5.60;3.80;;;;;;;2.11;80.83;99336.99;101324;1305;76477;-24
2022/12/28 01:14:00;;;;;;;5.10;3.20;;;;;;;1.98;81.07;99351.55;101331;1311;75014;-24
2022/12/28 01:16:29;;;;;;;8.50;3.50;;;;;;;1.81;81.64;99352.58;101840;1306;61842;-24
2022/12/28 01:18:58;;;;;;;7.40;3.50;;;;;;;1.67;82.47;99353.14;101856;1302;62000;-24
2022/12/28 01:21:26;;;;;;;4.90;2.90;;;;;;;1.68;82.93;99352.92;101654;1308;75789;-24
2022/12/28 01:23:55;;;;;;;7.50;3.70;;;;;;;1.95;82.18;99346.17;101776;1308;76505;-24
2022/12/28 01:26:23;;;;;;;9.60;4.20;;;;;;;1.88;82.27;99353.49;101583;1308;74888;-24
2022/12/28 01:28:50;;;;;;;4.50;2.90;;;;;;;1.66;83.40;99362.25;101922;1302;61183;-24
2022/12/28 01:31:17;;;;;;;8.90;3.20;;;;;;;1.49;84.33;99361.52;101963;1305;62866;-24
2022/12/28 01:33:45;;;;;;;7.40;3.10;;;;;;;1.34;85.35;99359.21;101889;1302;75347;-23
2022/12/28 01:36:14;;;;;;;5.20;2.60;;;;;;;1.71;84.43;99367.02;101954;1305;76778;-24
2022/12/28 01:38:41;;;;;;;6.70;2.70;;;;;;;1.77;83.55;99367.45;101930;1305;74942;-24
2022/12/28 01:41:10;;;;;;;6.40;3.10;;;;;;;1.67;83.50;99365.11;101933;1296;62098;-24
2022/12/28 01:43:41;;;;;;;8.20;2.50;;;;;;;1.48;84.17;99365.18;101867;1297;62632;-26
2022/12/28 01:46:10;;;;;;;6.20;3.00;;;;;;;1.46;84.52;99374.29;101874;1305;75329;-26
2022/12/28 01:48:42;;;;;;;10.00;2.30;;;;;;;1.91;83.12;99370.31;101807;1306;76273;-26
2022/12/28 01:51:10;;;;;;;8.90;2.10;;;;;;;2.04;81.72;99370.52;101774;1309;75229;-26
2022/12/28 01:53:37;;;;;;;8.80;3.40;;;;;;;1.85;82.16;99376.72;101933;1300;61685;-26
2022/12/28 01:56:05;;;;;;;4.40;2.40;;;;;;;1.72;82.73;99380.83;101813;1309;62757;-27
2022/12/28 01:58:32;;;;;;;5.10;2.80;;;;;;;1.48;83.76;99379.20;101828;1300;74536;-26
2022/12/28 02:00:59;;;;;;;6.10;2.30;;;;;;;1.70;83.50;99382.82;101942;1304;76552;-26
2022/12/28 02:03:28;;;;;;;3.40;2.50;;;;;;;1.98;82.16;99372.46;101903;1297;73470;-27
2022/12/28 02:05:56;;;;;;;5.70;3.20;;;;;;;1.95;81.82;99374.98;101963;1297;63140;-26
2022/12/28 02:08:26;;;;;;;4.70;2.90;;;;;;;1.73;82.63;99372.08;102231;1299;63317;-26
2022/12/28 02:10:53;;;;;;;6.10;3.00;;;;;;;1.52;83.25;99366.71;102271;1298;74264;-27
2022/12/28 02:13:21;;;;;;;6.30;3.10;;;;;;;1.53;83.52;99366.69;102274;1295;74733;-26
2022/12/28 02:15:48;;;;;;;6.20;2.70;;;;;;;1.78;82.65;99375.61;101917;1299;73621;-25
2022/12/28 02:18:16;;;;;;;4.50;2.30;;;;;;;1.97;81.96;99377.46;102186;1294;62972;-25
2022/12/28 02:20:55;;;;;;;4.80;2.60;;;;;;;1.87;81.76;99379.23;102087;1298;61673;-25
2022/12/28 02:23:26;;;;;;;6.30;2.50;;;;;;;1.60;82.51;99380.47;102170;1301;75363;-25
2022/12/28 02:26:08;;;;;;;4.30;2.70;;;;;;;1.43;83.33;99380.60;102286;1299;76733;-25
2022/12/28 02:29:12;;;;;;;2.90;2.20;;;;;;;1.71;82.94;99382.25;102068;1295;75306;-25
2022/12/28 02:31:47;;;;;;;6.90;2.40;;;;;;;1.98;81.46;99386.48;102157;1302;61110;-25
2022/12/28 02:34:24;;;;;;;4.00;2.70;;;;;;;1.83;81.88;99383.99;101929;1305;62882;-25
2022/12/28 02:36:54;;;;;;;5.00;2.50;;;;;;;1.61;82.42;99381.11;101964;1300;75794;-25
2022/12/28 02:39:43;;;;;;;2.60;2.00;;;;;;;1.47;83.20;99381.30;102062;1298;75564;-25
2022/12/28 02:42:10;;;;;;;4.60;2.40;;;;;;;1.70;82.79;99379.91;102205;1301;73219;-25
2022/12/28 02:50:11;;;;;;;7.30;3.40;;;;;;;1.80;81.50;99381.04;102322;1298;74220;-25
2022/12/28 02:53:14;;;;;;;6.20;2.50;;;;;;;1.62;82.19;99383.96;102054;1294;76597;-25
2022/12/28 02:56:06;;;;;;;6.00;2.10;;;;;;;1.43;83.07;99380.58;102151;1294;74168;-25
2022/12/28 02:59:14;;;;;;;4.20;2.70;;;;;;;1.90;82.12;99385.09;102190;1300;62266;-25
2022/12/28 03:02:09;;;;;;;4.20;3.10;;;;;;;2.02;80.85;99386.50;102210;1297;61579;-26
2022/12/28 03:04:48;;;;;;;2.90;2.20;;;;;;;1.81;81.49;99384.74;102149;1299;73302;-25
2022/12/28 03:11:18;;;;;;;4.20;2.50;;;;;;;1.36;83.73;99390.63;99143;1331;600358;-23
2022/12/28 03:13:55;;;;;;;7.10;3.40;;;;;;;1.77;82.65;99397.61;101103;1307;62180;-23
2022/12/28 03:16:27;;;;;;;4.20;2.60;;;;;;;2.07;81.03;99397.10;100928;1311;62661;-24
2022/12/28 03:33:04;;;;;;;5.50;3.00;;;;;;;2.05;79.96;99411.88;101342;1310;74812;-24
2022/12/28 03:36:12;;;;;;;6.00;3.10;;;;;;;1.95;80.17;99417.75;101373;1313;76701;-24
2022/12/28 03:39:08;;;;;;;6.60;3.00;;;;;;;1.75;80.86;99419.05;101046;1312;74071;-23
2022/12/28 03:44:49;;;;;;;5.40;3.00;;;;;;;1.62;81.69;99416.16;101172;1314;63224;-24
2022/12/28 03:47:16;;;;;;;7.50;3.40;;;;;;;1.94;80.56;99419.85;101220;1313;75566;-23
2022/12/28 03:49:44;;;;;;;4.80;3.30;;;;;;;1.99;80.06;99429.77;101336;1311;76596;-24
2022/12/28 03:52:11;;;;;;;4.70;2.90;;;;;;;1.76;80.64;99426.05;101363;1296;74214;-24
2022/12/28 03:54:39;;;;;;;7.30;3.00;;;;;;;1.71;80.96;99424.55;101246;1307;61820;-24
2022/12/28 03:57:07;;;;;;;5.00;2.70;;;;;;;1.56;81.68;99433.48;101091;1312;61050;-23
2022/12/28 03:59:37;;;;;;;5.30;3.00;;;;;;;1.49;82.28;99431.36;101234;1308;75553;-24
2022/12/28 04:02:04;;;;;;;6.00;2.50;;;;;;;1.74;81.36;99434.33;101259;1311;76763;-23
2022/12/28 04:04:32;;;;;;;5.00;2.80;;;;;;;2.12;79.74;99435.10;101321;1312;75259;-24
2022/12/28 04:06:59;;;;;;;4.00;2.50;;;;;;;2.07;79.56;99443.16;101349;1312;62962;-24
2022/12/28 04:09:26;;;;;;;5.70;2.50;;;;;;;1.84;80.08;99448.34;101351;1310;63007;-24
2022/12/28 04:11:53;;;;;;;9.00;3.50;;;;;;;1.69;81.00;99452.52;101308;1311;75569;-23
2022/12/28 04:14:26;;;;;;;3.60;2.30;;;;;;;1.52;81.74;99460.33;101386;1304;76564;-24
2022/12/28 04:16:53;;;;;;;5.10;3.10;;;;;;;1.59;82.15;99465.23;101253;1312;74966;-24
2022/12/28 04:19:20;;;;;;;3.30;1.90;;;;;;;1.91;80.92;99471.85;101239;1312;61731;-24
2022/12/28 04:21:47;;;;;;;3.70;2.70;;;;;;;2.00;80.31;99470.29;101274;1313;62580;-23
2022/12/28 04:24:14;;;;;;;7.90;3.20;;;;;;;1.88;80.76;99470.60;101332;1312;75599;-23
2022/12/28 04:26:41;;;;;;;8.00;2.50;;;;;;;1.72;81.24;99468.98;101249;1307;76815;-23
2022/12/28 04:29:09;;;;;;;4.20;2.60;;;;;;;1.50;82.34;99468.64;101306;1304;75470;-23
2022/12/28 04:31:56;;;;;;;5.90;3.70;;;;;;;1.66;82.12;99466.66;101267;1314;62029;-24
2022/12/28 04:34:24;;;;;;;3.80;2.50;;;;;;;1.98;80.98;99467.66;101402;1304;61848;-23
2022/12/28 04:37:11;;;;;;;6.40;2.60;;;;;;;1.97;80.42;99466.83;101315;1305;75600;-23
2022/12/28 04:39:38;;;;;;;4.00;2.50;;;;;;;1.69;81.36;99468.08;101333;1312;76799;-24
2022/12/28 04:42:23;;;;;;;6.40;3.50;;;;;;;1.56;82.00;99474.89;101236;1310;75364;-23
2022/12/28 04:44:50;;;;;;;6.00;3.90;;;;;;;1.32;83.06;99475.77;101116;1306;62579;-23
2022/12/28 04:47:17;;;;;;;5.90;3.40;;;;;;;1.68;82.47;99483.70;101368;1312;61719;-27
2022/12/28 04:49:44;;;;;;;5.00;2.90;;;;;;;1.96;81.00;99481.77;101373;1311;74352;-28
2022/12/28 04:52:11;;;;;;;5.20;3.00;;;;;;;1.96;80.60;99478.36;101375;1311;76706;-27
2022/12/28 04:54:38;;;;;;;5.10;3.40;;;;;;;1.73;81.46;99487.45;101360;1308;74039;-34
2022/12/28 04:57:05;;;;;;;7.10;3.10;;;;;;;1.49;82.36;99489.17;101398;1311;61825;-26
2022/12/28 04:59:32;;;;;;;3.10;2.00;;;;;;;1.34;83.32;99483.92;101296;1309;62683;-26
2022/12/28 05:01:59;;;;;;;2.50;2.20;;;;;;;1.68;82.73;99487.98;101280;1305;75517;-24
2022/12/28 05:04:26;;;;;;;4.40;3.10;;;;;;;2.04;81.05;99492.75;101198;1311;76755;-24
2022/12/28 05:06:53;;;;;;;5.40;3.10;;;;;;;1.96;80.67;99489.84;101247;1312;74966;-25
2022/12/28 05:09:20;;;;;;;5.90;3.80;;;;;;;1.76;81.42;99485.13;101320;1311;62489;-25
2022/12/28 05:11:47;;;;;;;5.90;3.70;;;;;;;1.52;82.29;99488.38;101124;1314;62834;-25
2022/12/28 05:14:14;;;;;;;7.30;3.50;;;;;;;1.35;83.08;99483.54;101232;1312;75590;-24
2022/12/28 05:16:41;;;;;;;5.00;3.20;;;;;;;1.47;83.12;99479.84;101289;1311;75538;-24
2022/12/28 05:19:08;;;;;;;8.10;3.40;;;;;;;1.85;81.64;99486.13;101532;1307;74181;-25
2022/12/28 05:21:35;;;;;;;6.90;3.80;;;;;;;1.88;80.97;99496.13;101459;1311;61731;-25
2022/12/28 05:24:02;;;;;;;7.60;4.10;;;;;;;1.64;81.41;99488.33;101547;1308;62640;-24
2022/12/28 05:26:29;;;;;;;6.10;3.20;;;;;;;1.53;82.07;99499.13;101700;1308;74237;-24
2022/12/28 05:28:57;;;;;;;6.40;3.50;;;;;;;1.32;83.14;99508.29;101539;1307;76727;-24
2022/12/28 05:31:25;;;;;;;5.20;2.90;;;;;;;1.39;83.29;99507.34;101670;1308;75153;-24
2022/12/28 05:33:52;;;;;;;4.90;3.60;;;;;;;1.74;81.81;99503.16;101688;1308;61572;-25
2022/12/28 05:36:24;;;;;;;5.00;3.70;;;;;;;1.77;81.40;99510.76;101668;1308;62893;-24
2022/12/28 05:38:51;;;;;;;4.20;3.10;;;;;;;1.68;81.58;99515.20;101560;1311;75322;-24
2022/12/28 05:41:23;;;;;;;6.60;4.00;;;;;;;1.54;81.84;99517.58;101482;1312;76891;-24
2022/12/28 05:43:51;;;;;;;6.40;4.00;;;;;;;1.29;82.91;99516.95;101362;1311;75255;-24
2022/12/28 05:46:19;;;;;;;10.10;3.90;;;;;;;1.31;83.41;99518.09;101633;1308;63544;-25
2022/12/28 05:48:46;;;;;;;6.90;3.00;;;;;;;1.75;81.74;99522.31;101501;1310;62586;-24
2022/12/28 05:51:16;;;;;;;6.30;3.40;;;;;;;1.81;80.92;99525.88;101612;1308;75565;-26
2022/12/28 05:53:43;;;;;;;7.10;4.60;;;;;;;1.57;81.56;99528.45;101314;1306;76766;-26
2022/12/28 05:56:15;;;;;;;6.40;3.20;;;;;;;1.32;82.43;99528.14;101366;1305;74177;-23
2022/12/28 05:58:42;;;;;;;7.90;3.60;;;;;;;1.05;83.40;99527.34;101293;1304;61066;-23
2022/12/28 06:01:15;;;;;;;9.70;4.40;;;;;;;1.08;83.81;99523.66;101588;1308;61685;-23
2022/12/28 06:03:43;;;;;;;4.10;2.60;;;;;;;1.46;82.33;99532.75;101527;1309;73415;-23
2022/12/28 06:06:12;;;;;;;6.60;3.70;;;;;;;1.47;81.69;99538.89;101378;1312;75717;-23
2022/12/28 06:08:39;;;;;;;4.10;3.00;;;;;;;1.23;82.22;99533.90;101529;1310;75632;-23
2022/12/28 06:11:08;;;;;;;7.50;4.30;;;;;;;1.04;82.99;99538.69;101359;1314;61857;-23
2022/12/28 06:13:35;;;;;;;6.60;3.60;;;;;;;0.79;84.17;99541.91;101262;1309;63700;-23
2022/12/28 06:16:06;;;;;;;6.80;3.40;;;;;;;1.04;83.76;99542.08;101594;1308;75608;-23
2022/12/28 06:18:34;;;;;;;6.80;3.60;;;;;;;1.35;82.38;99544.45;101396;1309;76749;-23
2022/12/28 06:21:06;;;;;;;8.80;4.00;;;;;;;1.29;81.89;99535.91;101335;1309;74125;-23
2022/12/28 06:23:33;;;;;;;4.20;2.30;;;;;;;1.14;82.60;99542.59;101452;1312;61174;-23
2022/12/28 06:26:01;;;;;;;8.20;4.20;;;;;;;1.00;83.12;99543.77;101540;1307;62867;-23
2022/12/28 06:28:28;;;;;;;8.10;4.60;;;;;;;0.84;83.81;99550.64;101414;1309;75459;-23
2022/12/28 06:31:09;;;;;;;3.90;2.30;;;;;;;1.15;83.35;99552.65;101890;1305;75700;-23
2022/12/28 06:33:36;;;;;;;5.00;3.60;;;;;;;1.38;81.89;99549.80;101864;1303;74087;-23
2022/12/28 06:36:04;;;;;;;6.30;3.90;;;;;;;1.38;81.81;99553.77;101843;1306;61606;-23
2022/12/28 06:38:33;;;;;;;9.40;4.00;;;;;;;1.30;82.04;99553.52;101795;1306;61670;-23
2022/12/28 06:41:02;;;;;;;7.20;3.70;;;;;;;1.12;82.79;99546.11;101893;1304;75559;-24
2022/12/28 06:43:40;;;;;;;5.40;2.80;;;;;;;1.03;83.31;99559.56;101842;1305;76764;-24
2022/12/28 06:46:07;;;;;;;6.10;3.40;;;;;;;1.43;82.32;99557.34;101904;1301;72250;-24
2022/12/28 06:48:35;;;;;;;8.30;3.10;;;;;;;1.90;80.26;99566.45;101893;1302;63131;-24
2022/12/28 06:51:07;;;;;;;7.70;3.50;;;;;;;1.87;79.59;99559.50;101933;1305;61143;-24
2022/12/28 06:53:35;;;;;;;4.20;2.70;;;;;;;1.68;79.94;99563.30;101744;1308;75358;-24
2022/12/28 06:56:13;;;;;;;6.40;3.60;;;;;;;1.66;79.96;99565.59;101920;1305;76566;-24
2022/12/28 06:58:40;;;;;;;6.00;3.60;;;;;;;1.48;80.69;99571.55;101841;1304;73314;-24
2022/12/28 07:01:15;;;;;;;7.60;3.70;;;;;;;1.32;81.15;99575.00;101836;1299;61949;-24
2022/12/28 07:03:43;;;;;;;7.60;2.60;;;;;;;1.30;81.67;99571.66;101851;1300;62874;-24
2022/12/28 07:06:11;;;;;;;8.20;3.00;;;;;;;1.93;79.51;99570.93;101824;1308;75440;-24
2022/12/28 07:08:39;;;;;;;5.50;3.50;;;;;;;2.06;77.93;99567.02;102027;1301;76873;-24
2022/12/28 07:11:08;;;;;;;6.30;2.70;;;;;;;2.01;77.80;99567.55;102278;1307;75321;-24
2022/12/28 07:13:35;;;;;;;4.40;2.70;;;;;;;1.81;78.35;99574.46;102144;1302;61069;-24
2022/12/28 07:16:03;;;;;;;5.00;2.80;;;;;;;1.55;79.17;99578.81;102314;1300;61599;-26
2022/12/28 07:18:31;;;;;;;7.80;3.60;;;;;;;1.29;80.05;99573.05;102118;1303;75320;-26
2022/12/28 07:21:02;;;;;;;5.50;2.40;;;;;;;1.06;81.43;99570.92;101923;1299;75435;-26
2022/12/28 07:23:30;;;;;;;4.30;2.50;;;;;;;1.39;80.80;99573.73;102143;1300;74287;-23
2022/12/28 07:25:57;;;;;;;6.30;2.70;;;;;;;1.70;79.18;99580.87;102168;1302;62838;-23
2022/12/28 07:28:24;;;;;;;8.30;3.60;;;;;;;1.58;79.12;99577.17;102046;1307;62832;-25
2022/12/28 07:30:51;;;;;;;8.00;3.20;;;;;;;1.41;79.88;99580.67;102113;1298;76383;-24
2022/12/28 07:33:18;;;;;;;6.10;3.40;;;;;;;1.28;80.76;99576.52;102086;1303;76778;-24
2022/12/28 07:35:45;;;;;;;4.90;3.20;;;;;;;1.29;80.86;99583.33;102236;1295;75205;-24
2022/12/28 07:38:12;;;;;;;5.10;3.40;;;;;;;1.16;81.49;99579.65;102299;1305;61158;-26
2022/12/28 07:40:46;;;;;;;7.20;3.90;;;;;;;1.53;80.68;99573.40;102338;1299;62851;-27
2022/12/28 07:43:13;;;;;;;8.30;4.20;;;;;;;1.96;78.93;99582.48;102245;1300;76402;-27
2022/12/28 07:45:40;;;;;;;6.50;4.10;;;;;;;2.10;77.99;99586.75;102253;1301;75672;-26
2022/12/28 07:48:07;;;;;;;5.80;3.30;;;;;;;2.02;77.93;99580.72;102230;1292;74964;-27
2022/12/28 07:50:34;;;;;;;8.40;3.20;;;;;;;2.02;78.18;99586.72;102252;1295;61779;-24
2022/12/28 07:53:04;;;;;;;6.10;2.90;;;;;;;2.09;78.09;99582.86;102275;1302;62478;-25
2022/12/28 07:55:30;;;;;;;7.10;3.10;;;;;;;2.03;78.39;99590.96;102225;1300;76123;-26
2022/12/28 07:57:58;;;;;;;5.40;3.10;;;;;;;2.02;78.14;99586.20;102306;1301;75722;-26
2022/12/28 08:00:25;;;;;;;6.70;3.20;;;;;;;1.96;78.40;99587.27;102066;1305;74325;-29
2022/12/28 08:02:55;;;;;;;9.30;4.10;;;;;;;1.90;78.64;99595.04;102330;1299;61165;-25
2022/12/28 08:05:22;;;;;;;8.20;4.20;;;;;;;1.94;78.92;99603.09;102088;1302;61497;-24
2022/12/28 08:07:49;;;;;;;6.00;4.30;;;;;;;2.00;78.68;99605.45;102029;1300;76386;-26
2022/12/28 08:10:16;;;;;;;7.10;4.70;;;;;;;1.91;78.88;99610.39;102017;1303;76763;-26
2022/12/28 08:12:43;;;;;;;7.80;3.70;;;;;;;2.00;78.89;99606.13;102280;1300;75146;-27
2022/12/28 08:15:10;;;;;;;6.00;3.10;;;;;;;2.09;77.95;99597.77;102086;1299;61271;-26
2022/12/28 08:17:37;;;;;;;6.90;3.50;;;;;;;2.19;77.44;99598.58;102125;1293;62856;-25
2022/12/28 08:20:05;;;;;;;6.70;3.00;;;;;;;2.34;77.21;99603.15;102300;1294;75380;-25
2022/12/28 08:22:32;;;;;;;7.50;3.80;;;;;;;2.49;76.91;99603.26;102100;1300;75422;-26
2022/12/28 08:24:59;;;;;;;8.10;2.90;;;;;;;2.44;75.90;99597.27;102033;1302;74224;-25
2022/12/28 08:27:26;;;;;;;4.90;3.70;;;;;;;2.25;76.65;99598.86;102320;1292;61116;-25
2022/12/28 08:29:53;;;;;;;5.50;3.00;;;;;;;2.43;76.51;99603.33;102296;1301;62867;-25
2022/12/28 08:32:20;;;;;;;11.80;4.50;;;;;;;2.47;76.23;99599.56;102268;1302;76294;-25
2022/12/28 08:34:47;;;;;;;6.10;3.60;;;;;;;2.61;76.57;99607.42;102183;1302;76536;-25
2022/12/28 08:37:14;;;;;;;7.20;4.20;;;;;;;2.64;75.45;99601.80;102205;1293;75200;-26
2022/12/28 08:39:40;;;;;;;5.70;3.10;;;;;;;2.78;75.20;99602.44;102153;1301;61889;-24
2022/12/28 08:42:07;;;;;;;7.70;4.40;;;;;;;2.90;75.07;99608.48;102270;1299;61455;-24
2022/12/28 08:44:34;;;;;;;10.70;3.50;;;;;;;2.88;74.42;99600.86;102270;1302;75366;-25
2022/12/28 08:47:01;;;;;;;11.30;4.00;;;;;;;2.75;75.11;99601.52;102282;1302;76702;-24
2022/12/28 08:49:28;;;;;;;6.30;3.50;;;;;;;2.89;74.27;99593.43;102161;1301;75066;-25
2022/12/28 08:51:55;;;;;;;4.60;3.00;;;;;;;2.95;73.84;99591.82;101915;1294;62036;-24
2022/12/28 08:54:22;;;;;;;6.60;3.80;;;;;;;3.14;73.69;99595.15;102172;1292;62196;-25
2022/12/28 08:56:51;;;;;;;4.40;2.80;;;;;;;3.36;72.75;99591.13;102299;1302;75434;-32
2022/12/28 08:59:18;;;;;;;8.20;3.00;;;;;;;3.32;72.35;99591.30;102308;1299;76791;-24
2022/12/28 09:01:46;;;;;;;5.60;2.60;;;;;;;3.54;71.91;99591.76;102260;1301;74164;-25
2022/12/28 09:04:20;;;;;;;6.40;3.80;;;;;;;3.42;70.89;99588.15;102202;1294;61792;-25
2022/12/28 09:06:47;;;;;;;8.60;3.30;;;;;;;3.23;71.38;99586.73;101901;1303;62739;-24
2022/12/28 09:09:16;;;;;;;12.00;3.30;;;;;;;3.09;71.63;99590.91;102247;1301;76414;-24
2022/12/28 09:11:43;;;;;;;4.40;2.50;;;;;;;2.92;71.42;99582.15;101992;1299;76590;-25
2022/12/28 09:14:11;;;;;;;5.30;3.30;;;;;;;2.83;72.45;99592.64;102188;1302;75179;-24
2022/12/28 09:16:48;;;;;;;5.80;3.30;;;;;;;2.76;73.03;99583.86;101955;1299;61043;-25
2022/12/28 09:19:15;;;;;;;3.60;2.30;;;;;;;2.77;73.02;99584.31;102269;1302;62026;-25
2022/12/28 09:21:43;;;;;;;6.10;2.20;;;;;;;3.27;70.94;99581.89;102297;1292;76199;-24
2022/12/28 09:24:11;;;;;;;5.10;3.10;;;;;;;3.48;70.55;99587.02;102304;1292;76531;-25
2022/12/28 09:26:38;;;;;;;5.40;3.00;;;;;;;3.44;69.88;99577.95;102101;1304;74241;-23
2022/12/28 09:29:07;;;;;;;8.50;2.80;;;;;;;3.26;70.79;99587.82;101986;1300;63054;-25
2022/12/28 09:31:35;;;;;;;4.40;1.90;;;;;;;3.10;71.09;99590.86;101978;1305;61861;-25
2022/12/28 09:34:04;;;;;;;4.40;3.20;;;;;;;2.85;70.62;99593.91;102117;1303;75264;-25
2022/12/28 09:36:51;;;;;;;5.00;2.50;;;;;;;2.74;71.90;99603.29;101982;1295;76725;-25
2022/12/28 09:39:19;;;;;;;5.30;2.50;;;;;;;2.65;72.67;99602.31;102294;1302;74143;-25
2022/12/28 09:41:53;;;;;;;7.00;4.10;;;;;;;2.61;73.40;99606.91;101949;1305;61841;-25
2022/12/28 09:44:52;;;;;;;5.10;2.30;;;;;;;2.59;73.83;99603.20;101956;1280;61646;-25
2022/12/28 09:47:22;;;;;;;5.80;3.10;;;;;;;3.18;72.10;99603.93;102172;1302;76217;-25
2022/12/28 09:50:08;;;;;;;4.90;3.10;;;;;;;3.30;71.07;99603.58;102131;1294;75710;-25
2022/12/28 09:52:36;;;;;;;6.70;3.10;;;;;;;3.14;72.42;99606.48;102283;1302;75164;-25
2022/12/28 09:55:11;;;;;;;7.90;3.30;;;;;;;3.06;72.06;99601.31;102186;1302;61983;-25
2022/12/28 09:57:41;;;;;;;6.70;2.80;;;;;;;2.88;72.79;99603.25;101962;1305;61453;-25
2022/12/28 10:00:15;;;;;;;4.80;2.90;;;;;;;2.77;73.90;99602.17;101956;1304;76356;-25
2022/12/28 10:02:44;;;;;;;5.70;3.30;;;;;;;2.62;74.43;99600.70;102145;1301;75878;-26
2022/12/28 10:05:11;;;;;;;10.00;3.70;;;;;;;2.55;74.48;99601.14;102081;1302;73910;-25
2022/12/28 10:07:38;;;;;;;6.60;3.50;;;;;;;3.00;73.35;99602.40;102159;1294;63046;-25
2022/12/28 10:10:06;;;;;;;4.60;3.10;;;;;;;3.30;72.60;99609.23;102113;1299;61744;-26
2022/12/28 10:12:33;;;;;;;6.70;3.00;;;;;;;3.20;72.13;99607.77;102252;1299;75184;-25
2022/12/28 10:15:00;;;;;;;5.30;2.80;;;;;;;3.07;72.54;99611.89;102134;1302;76351;-26
2022/12/28 10:17:29;;;;;;;7.10;2.60;;;;;;;2.95;72.67;99614.14;102175;1302;75280;-25
2022/12/28 10:19:57;;;;;;;8.40;3.20;;;;;;;2.79;73.67;99621.97;102184;1305;62017;-25
2022/12/28 10:22:24;;;;;;;6.60;3.60;;;;;;;2.68;74.15;99620.01;102106;1302;61678;-25
2022/12/28 10:24:51;;;;;;;5.50;2.50;;;;;;;2.61;74.85;99619.77;102158;1301;75187;-25
2022/12/28 10:27:29;;;;;;;6.60;3.60;;;;;;;2.74;74.71;99617.69;102059;1301;76673;-26
2022/12/28 10:29:58;;;;;;;7.80;2.70;;;;;;;3.29;71.98;99611.88;101922;1298;74208;-25
2022/12/28 10:32:25;;;;;;;6.80;2.60;;;;;;;3.43;70.88;99609.38;102012;1295;62908;-25
2022/12/28 10:34:59;;;;;;;4.60;3.00;;;;;;;3.50;71.82;99609.08;102099;1300;62086;-27
2022/12/28 10:37:29;;;;;;;6.20;2.90;;;;;;;3.38;71.59;99602.73;102189;1299;76605;-26
2022/12/28 10:39:57;;;;;;;5.20;2.60;;;;;;;3.18;71.84;99601.86;101991;1300;76365;-26
2022/12/28 10:42:28;;;;;;;5.40;2.40;;;;;;;3.11;71.14;99597.20;102121;1302;73913;-26
2022/12/28 10:44:59;;;;;;;7.60;2.80;;;;;;;2.97;71.68;99596.38;101998;1305;61251;-26
2022/12/28 10:47:34;;;;;;;5.50;2.70;;;;;;;2.92;71.49;99593.99;101939;1297;62881;-24
2022/12/28 10:50:01;;;;;;;7.00;3.30;;;;;;;2.91;71.23;99599.88;101968;1304;76407;-24
2022/12/28 10:52:56;;;;;;;5.40;2.50;;;;;;;2.93;71.51;99599.11;102270;1299;75649;-25
2022/12/28 10:55:28;;;;;;;3.60;1.80;;;;;;;3.23;71.66;99600.77;101981;1294;75203;-24
2022/12/28 10:58:29;;;;;;;3.80;2.40;;;;;;;3.90;68.71;99595.65;101979;1302;62628;-23
2022/12/28 11:01:03;;;;;;;4.10;2.10;;;;;;;4.12;66.40;99593.80;101999;1291;61517;-28
2022/12/28 11:03:34;;;;;;;6.80;2.90;;;;;;;4.03;66.05;99591.10;102015;1302;76859;-24
2022/12/28 11:06:08;;;;;;;3.50;1.90;;;;;;;3.89;67.16;99598.13;101913;1297;76575;-24
2022/12/28 11:08:36;;;;;;;3.30;2.00;;;;;;;3.69;66.14;99592.10;102081;1302;75210;-24
2022/12/28 11:11:03;;;;;;;3.50;2.30;;;;;;;3.55;64.94;99591.70;102011;1295;61058;-24
2022/12/28 11:13:30;;;;;;;3.30;2.30;;;;;;;3.76;64.86;99586.16;102224;1299;61700;-25
2022/12/28 11:15:58;;;;;;;3.20;1.90;;;;;;;4.17;65.02;99586.04;102113;1301;75936;-25
2022/12/28 11:18:25;;;;;;;3.10;1.70;;;;;;;4.55;63.76;99572.40;102194;1302;76784;-26
2022/12/28 11:20:53;;;;;;;3.50;1.50;;;;;;;4.73;61.08;99568.25;102317;1294;75205;-25
2022/12/28 11:23:30;;;;;;;4.50;2.10;;;;;;;4.88;59.75;99563.54;102122;1295;61738;-25
2022/12/28 11:25:57;;;;;;;3.10;1.40;;;;;;;4.92;58.41;99558.55;101945;1299;61688;-26
2022/12/28 11:28:24;;;;;;;7.30;2.00;;;;;;;4.88;58.40;99560.63;102347;1292;76270;-26
2022/12/28 11:30:51;;;;;;;4.30;1.80;;;;;;;4.94;57.80;99556.56;102183;1300;74875;-26
2022/12/28 11:33:37;;;;;;;3.50;1.40;;;;;;;4.84;57.46;99559.63;102337;1292;75292;-24
2022/12/28 11:36:04;;;;;;;3.40;1.80;;;;;;;4.90;57.12;99565.03;101901;1305;61120;-24
2022/12/28 11:38:42;;;;;;;3.10;1.30;;;;;;;4.80;56.41;99567.06;102370;1299;62097;-24
2022/12/28 11:41:35;;;;;;;4.20;1.60;;;;;;;4.72;55.86;99562.31;102109;1302;75006;-24
2022/12/28 11:44:04;;;;;;;3.70;1.20;;;;;;;4.61;56.87;99569.36;102180;1298;76771;-24
2022/12/28 11:46:34;;;;;;;6.70;1.80;;;;;;;4.44;57.55;99569.14;101984;1301;74968;-24
2022/12/28 11:49:03;;;;;;;3.90;1.50;;;;;;;4.32;56.44;99566.60;102130;1299;61085;-24
2022/12/28 11:51:34;;;;;;;4.40;1.60;;;;;;;4.41;57.98;99568.43;102082;1295;61601;-24
2022/12/28 11:54:03;;;;;;;2.70;1.20;;;;;;;4.36;57.52;99567.78;102012;1297;76332;-24
2022/12/28 11:56:42;;;;;;;2.30;1.40;;;;;;;4.29;57.89;99562.95;102117;1291;75639;-24
2022/12/28 11:59:32;;;;;;;2.40;1.20;;;;;;;4.30;57.10;99559.96;102173;1302;74833;-25
2022/12/28 12:02:20;;;;;;;2.20;1.20;;;;;;;4.25;56.95;99554.18;102289;1294;61492;-25
2022/12/28 12:04:49;;;;;;;2.80;1.70;;;;;;;4.17;57.57;99550.63;102099;1294;62784;-25
2022/12/28 12:07:24;;;;;;;3.00;1.80;;;;;;;4.19;58.20;99556.90;102132;1293;75121;-24
2022/12/28 12:10:32;;;;;;;9.80;1.70;;;;;;;4.19;59.33;99560.66;102049;1299;76841;-24
2022/12/28 12:13:01;;;;;;;4.60;1.30;;;;;;;4.15;58.26;99559.99;102261;1302;75465;-24
2022/12/28 12:15:39;;;;;;;4.40;1.60;;;;;;;4.09;58.57;99560.95;101953;1302;61835;-24